Elk, Pennsylvania
Current Conditions -  °F | °C
As of 3:15 PM on Friday 28 Nov 2014 (Local Time) from KN38 Reporting Station
Clear Clear  
Wind Chill: -10°   Ceiling: Unl
Heat Index: -4°   Visibility: 10mi
Dew Point: -12°   Wind: 12mph
Humidity: 54%   Direction: 240°WSW
Pressure: 30.13"   Gusts: NA
Location:  41.6649°N, 77.5403°W
Report Text: KN38 282015Z AUTO 24010KT 10SM CLR M04/M12 A3013 RMK AO2
Loading
Personal Weather Stations






























Interactive Weather Map New forecast layout! Learn more

10-Day Weather Forecast

Advertisements
Track Severe Weather on mobile